sensor_id;sensor_type;location;lat;lon;timestamp;P1;durP1;ratioP1;P2;durP2;ratioP2
9722;SDS011;4900;49.306;8.500;2024-01-30T00:01:19;16.13;;;12.10;;
9722;SDS011;4900;49.306;8.500;2024-01-30T00:03:44;20.20;;;12.30;;
9722;SDS011;4900;49.306;8.500;2024-01-30T00:06:10;14.93;;;11.47;;
9722;SDS011;4900;49.306;8.500;2024-01-30T00:08:36;15.60;;;11.30;;
9722;SDS011;4900;49.306;8.500;2024-01-30T00:11:02;15.20;;;11.00;;
9722;SDS011;4900;49.306;8.500;2024-01-30T00:13:27;13.07;;;10.10;;
9722;SDS011;4900;49.306;8.500;2024-01-30T00:15:53;14.43;;;10.33;;
9722;SDS011;4900;49.306;8.500;2024-01-30T00:18:18;14.93;;;10.93;;
9722;SDS011;4900;49.306;8.500;2024-01-30T00:20:44;15.53;;;10.47;;
9722;SDS011;4900;49.306;8.500;2024-01-30T00:23:10;18.13;;;11.47;;
9722;SDS011;4900;49.306;8.500;2024-01-30T00:25:35;15.03;;;11.00;;
9722;SDS011;4900;49.306;8.500;2024-01-30T00:28:00;14.53;;;11.00;;
9722;SDS011;4900;49.306;8.500;2024-01-30T00:30:26;14.60;;;11.00;;
9722;SDS011;4900;49.306;8.500;2024-01-30T00:32:51;16.20;;;11.03;;
9722;SDS011;4900;49.306;8.500;2024-01-30T00:35:17;14.93;;;10.30;;
9722;SDS011;4900;49.306;8.500;2024-01-30T00:37:42;14.63;;;10.30;;
9722;SDS011;4900;49.306;8.500;2024-01-30T00:40:08;15.23;;;11.17;;
9722;SDS011;4900;49.306;8.500;2024-01-30T00:42:35;14.80;;;10.53;;
9722;SDS011;4900;49.306;8.500;2024-01-30T00:45:01;16.53;;;10.63;;
9722;SDS011;4900;49.306;8.500;2024-01-30T00:47:27;16.10;;;10.47;;
9722;SDS011;4900;49.306;8.500;2024-01-30T00:49:54;15.77;;;10.70;;
9722;SDS011;4900;49.306;8.500;2024-01-30T00:52:19;15.13;;;10.23;;
9722;SDS011;4900;49.306;8.500;2024-01-30T00:54:45;15.37;;;10.40;;
9722;SDS011;4900;49.306;8.500;2024-01-30T00:57:10;14.40;;;10.50;;
9722;SDS011;4900;49.306;8.500;2024-01-30T00:59:36;17.90;;;10.40;;
9722;SDS011;4900;49.306;8.500;2024-01-30T01:02:01;15.50;;;10.60;;
9722;SDS011;4900;49.306;8.500;2024-01-30T01:04:27;15.17;;;10.97;;
9722;SDS011;4900;49.306;8.500;2024-01-30T01:06:52;14.53;;;10.80;;
9722;SDS011;4900;49.306;8.500;2024-01-30T01:09:18;15.87;;;11.33;;
9722;SDS011;4900;49.306;8.500;2024-01-30T01:11:43;14.80;;;11.00;;
9722;SDS011;4900;49.306;8.500;2024-01-30T01:14:08;16.73;;;11.63;;
9722;SDS011;4900;49.306;8.500;2024-01-30T01:16:34;16.13;;;10.70;;
9722;SDS011;4900;49.306;8.500;2024-01-30T01:18:59;15.10;;;10.87;;
9722;SDS011;4900;49.306;8.500;2024-01-30T01:21:25;14.47;;;10.73;;
9722;SDS011;4900;49.306;8.500;2024-01-30T01:23:51;17.63;;;11.27;;
9722;SDS011;4900;49.306;8.500;2024-01-30T01:26:16;17.63;;;12.10;;
9722;SDS011;4900;49.306;8.500;2024-01-30T01:28:41;15.83;;;11.33;;
9722;SDS011;4900;49.306;8.500;2024-01-30T01:31:07;16.00;;;11.07;;
9722;SDS011;4900;49.306;8.500;2024-01-30T01:33:33;14.13;;;10.30;;
9722;SDS011;4900;49.306;8.500;2024-01-30T01:35:59;15.57;;;10.70;;
9722;SDS011;4900;49.306;8.500;2024-01-30T01:38:24;13.13;;;10.67;;
9722;SDS011;4900;49.306;8.500;2024-01-30T01:40:50;15.13;;;11.10;;
9722;SDS011;4900;49.306;8.500;2024-01-30T01:43:16;15.67;;;10.77;;
9722;SDS011;4900;49.306;8.500;2024-01-30T01:45:42;14.33;;;10.43;;
9722;SDS011;4900;49.306;8.500;2024-01-30T01:48:07;15.67;;;10.87;;
9722;SDS011;4900;49.306;8.500;2024-01-30T01:50:34;17.07;;;10.90;;
9722;SDS011;4900;49.306;8.500;2024-01-30T01:53:01;15.20;;;10.53;;
9722;SDS011;4900;49.306;8.500;2024-01-30T01:55:27;14.10;;;10.53;;
9722;SDS011;4900;49.306;8.500;2024-01-30T01:57:54;14.13;;;10.40;;
9722;SDS011;4900;49.306;8.500;2024-01-30T02:00:20;13.70;;;10.13;;
9722;SDS011;4900;49.306;8.500;2024-01-30T02:02:46;13.13;;;9.80;;
9722;SDS011;4900;49.306;8.500;2024-01-30T02:05:12;13.87;;;10.13;;
9722;SDS011;4900;49.306;8.500;2024-01-30T02:07:37;15.00;;;9.40;;
9722;SDS011;4900;49.306;8.500;2024-01-30T02:10:03;15.37;;;9.70;;
9722;SDS011;4900;49.306;8.500;2024-01-30T02:12:29;13.50;;;9.53;;
9722;SDS011;4900;49.306;8.500;2024-01-30T02:14:54;12.90;;;9.30;;
9722;SDS011;4900;49.306;8.500;2024-01-30T02:17:20;12.53;;;10.13;;
9722;SDS011;4900;49.306;8.500;2024-01-30T02:19:48;12.93;;;9.83;;
9722;SDS011;4900;49.306;8.500;2024-01-30T02:22:14;12.67;;;9.67;;
9722;SDS011;4900;49.306;8.500;2024-01-30T02:24:39;12.87;;;9.17;;
9722;SDS011;4900;49.306;8.500;2024-01-30T02:27:05;12.83;;;9.30;;
9722;SDS011;4900;49.306;8.500;2024-01-30T02:29:30;13.53;;;9.67;;
9722;SDS011;4900;49.306;8.500;2024-01-30T02:31:56;13.13;;;9.43;;
9722;SDS011;4900;49.306;8.500;2024-01-30T02:34:21;12.53;;;9.30;;
9722;SDS011;4900;49.306;8.500;2024-01-30T02:36:47;12.57;;;9.10;;
9722;SDS011;4900;49.306;8.500;2024-01-30T02:39:13;12.87;;;9.00;;
9722;SDS011;4900;49.306;8.500;2024-01-30T02:41:39;12.77;;;9.03;;
9722;SDS011;4900;49.306;8.500;2024-01-30T02:44:04;14.30;;;9.00;;
9722;SDS011;4900;49.306;8.500;2024-01-30T02:46:30;12.77;;;9.17;;
9722;SDS011;4900;49.306;8.500;2024-01-30T02:48:55;10.53;;;8.87;;
9722;SDS011;4900;49.306;8.500;2024-01-30T02:51:21;13.73;;;9.30;;
9722;SDS011;4900;49.306;8.500;2024-01-30T02:53:46;13.63;;;9.17;;
9722;SDS011;4900;49.306;8.500;2024-01-30T02:56:12;13.00;;;8.70;;
9722;SDS011;4900;49.306;8.500;2024-01-30T02:58:39;12.57;;;9.10;;
9722;SDS011;4900;49.306;8.500;2024-01-30T03:01:05;12.70;;;8.50;;
9722;SDS011;4900;49.306;8.500;2024-01-30T03:03:34;14.47;;;9.63;;
9722;SDS011;4900;49.306;8.500;2024-01-30T03:06:01;11.90;;;9.20;;
9722;SDS011;4900;49.306;8.500;2024-01-30T03:08:27;11.60;;;8.67;;
9722;SDS011;4900;49.306;8.500;2024-01-30T03:10:52;12.87;;;8.43;;
9722;SDS011;4900;49.306;8.500;2024-01-30T03:13:18;11.50;;;8.77;;
9722;SDS011;4900;49.306;8.500;2024-01-30T03:15:43;12.67;;;8.60;;
9722;SDS011;4900;49.306;8.500;2024-01-30T03:18:09;12.30;;;8.57;;
9722;SDS011;4900;49.306;8.500;2024-01-30T03:20:34;11.97;;;8.43;;
9722;SDS011;4900;49.306;8.500;2024-01-30T03:23:00;12.73;;;8.70;;
9722;SDS011;4900;49.306;8.500;2024-01-30T03:25:26;13.40;;;8.90;;
9722;SDS011;4900;49.306;8.500;2024-01-30T03:27:51;12.70;;;9.10;;
9722;SDS011;4900;49.306;8.500;2024-01-30T03:30:17;12.97;;;8.60;;
9722;SDS011;4900;49.306;8.500;2024-01-30T03:32:43;10.73;;;7.83;;
9722;SDS011;4900;49.306;8.500;2024-01-30T03:35:09;13.07;;;9.27;;
9722;SDS011;4900;49.306;8.500;2024-01-30T03:37:34;14.53;;;8.23;;
9722;SDS011;4900;49.306;8.500;2024-01-30T03:40:00;12.40;;;8.90;;
9722;SDS011;4900;49.306;8.500;2024-01-30T03:42:26;13.37;;;8.93;;
9722;SDS011;4900;49.306;8.500;2024-01-30T03:44:51;10.93;;;8.63;;
9722;SDS011;4900;49.306;8.500;2024-01-30T03:47:18;12.73;;;9.50;;
9722;SDS011;4900;49.306;8.500;2024-01-30T03:49:44;15.47;;;8.27;;
9722;SDS011;4900;49.306;8.500;2024-01-30T03:52:12;12.83;;;8.57;;
9722;SDS011;4900;49.306;8.500;2024-01-30T03:54:38;11.53;;;8.20;;
9722;SDS011;4900;49.306;8.500;2024-01-30T03:57:04;11.83;;;8.33;;
9722;SDS011;4900;49.306;8.500;2024-01-30T03:59:30;12.27;;;8.33;;
9722;SDS011;4900;49.306;8.500;2024-01-30T04:01:55;10.87;;;8.00;;
9722;SDS011;4900;49.306;8.500;2024-01-30T04:04:21;13.87;;;9.07;;
9722;SDS011;4900;49.306;8.500;2024-01-30T04:06:46;11.50;;;8.93;;
9722;SDS011;4900;49.306;8.500;2024-01-30T04:09:12;11.37;;;8.17;;
9722;SDS011;4900;49.306;8.500;2024-01-30T04:11:38;12.03;;;8.50;;
9722;SDS011;4900;49.306;8.500;2024-01-30T04:14:04;12.17;;;8.83;;
9722;SDS011;4900;49.306;8.500;2024-01-30T04:16:30;11.00;;;7.93;;
9722;SDS011;4900;49.306;8.500;2024-01-30T04:18:55;9.57;;;7.83;;
9722;SDS011;4900;49.306;8.500;2024-01-30T04:21:21;11.43;;;8.10;;
9722;SDS011;4900;49.306;8.500;2024-01-30T04:23:47;10.97;;;7.87;;
9722;SDS011;4900;49.306;8.500;2024-01-30T04:26:13;11.70;;;8.40;;
9722;SDS011;4900;49.306;8.500;2024-01-30T04:28:43;11.63;;;7.93;;
9722;SDS011;4900;49.306;8.500;2024-01-30T04:31:09;13.30;;;8.60;;
9722;SDS011;4900;49.306;8.500;2024-01-30T04:33:35;10.87;;;8.17;;
9722;SDS011;4900;49.306;8.500;2024-01-30T04:36:01;12.10;;;8.73;;
9722;SDS011;4900;49.306;8.500;2024-01-30T04:38:26;11.47;;;8.67;;
9722;SDS011;4900;49.306;8.500;2024-01-30T04:40:52;14.50;;;9.20;;
9722;SDS011;4900;49.306;8.500;2024-01-30T04:43:17;13.80;;;9.03;;
9722;SDS011;4900;49.306;8.500;2024-01-30T04:45:44;12.00;;;8.90;;
9722;SDS011;4900;49.306;8.500;2024-01-30T04:48:09;12.50;;;8.90;;
9722;SDS011;4900;49.306;8.500;2024-01-30T04:50:34;13.17;;;9.33;;
9722;SDS011;4900;49.306;8.500;2024-01-30T04:53:01;12.57;;;8.57;;
9722;SDS011;4900;49.306;8.500;2024-01-30T04:55:26;12.63;;;8.67;;
9722;SDS011;4900;49.306;8.500;2024-01-30T04:57:52;13.97;;;8.63;;
9722;SDS011;4900;49.306;8.500;2024-01-30T05:00:17;13.60;;;8.77;;
9722;SDS011;4900;49.306;8.500;2024-01-30T05:02:43;13.73;;;9.10;;
9722;SDS011;4900;49.306;8.500;2024-01-30T05:05:08;13.07;;;9.00;;
9722;SDS011;4900;49.306;8.500;2024-01-30T05:07:33;11.80;;;8.80;;
9722;SDS011;4900;49.306;8.500;2024-01-30T05:09:59;15.23;;;9.37;;
9722;SDS011;4900;49.306;8.500;2024-01-30T05:12:25;13.63;;;8.87;;
9722;SDS011;4900;49.306;8.500;2024-01-30T05:14:50;12.30;;;8.93;;
9722;SDS011;4900;49.306;8.500;2024-01-30T05:17:16;14.20;;;9.40;;
9722;SDS011;4900;49.306;8.500;2024-01-30T05:19:42;12.57;;;8.73;;
9722;SDS011;4900;49.306;8.500;2024-01-30T05:22:08;12.37;;;9.03;;
9722;SDS011;4900;49.306;8.500;2024-01-30T05:24:34;13.53;;;9.17;;
9722;SDS011;4900;49.306;8.500;2024-01-30T05:27:00;14.23;;;10.10;;
9722;SDS011;4900;49.306;8.500;2024-01-30T05:29:26;12.03;;;8.33;;
9722;SDS011;4900;49.306;8.500;2024-01-30T05:31:52;12.20;;;8.73;;
9722;SDS011;4900;49.306;8.500;2024-01-30T05:34:17;12.40;;;8.73;;
9722;SDS011;4900;49.306;8.500;2024-01-30T05:36:43;16.47;;;9.37;;
9722;SDS011;4900;49.306;8.500;2024-01-30T05:39:08;11.60;;;8.53;;
9722;SDS011;4900;49.306;8.500;2024-01-30T05:41:34;11.57;;;8.63;;
9722;SDS011;4900;49.306;8.500;2024-01-30T05:43:59;12.80;;;8.70;;
9722;SDS011;4900;49.306;8.500;2024-01-30T05:46:25;10.53;;;8.13;;
9722;SDS011;4900;49.306;8.500;2024-01-30T05:48:50;12.03;;;8.60;;
9722;SDS011;4900;49.306;8.500;2024-01-30T05:51:15;13.97;;;9.50;;
9722;SDS011;4900;49.306;8.500;2024-01-30T05:53:41;10.83;;;8.23;;
9722;SDS011;4900;49.306;8.500;2024-01-30T05:56:06;11.70;;;8.57;;
9722;SDS011;4900;49.306;8.500;2024-01-30T05:58:32;14.20;;;8.60;;
9722;SDS011;4900;49.306;8.500;2024-01-30T06:00:58;13.60;;;8.83;;
9722;SDS011;4900;49.306;8.500;2024-01-30T06:03:24;13.83;;;9.10;;
9722;SDS011;4900;49.306;8.500;2024-01-30T06:05:49;13.13;;;9.13;;
9722;SDS011;4900;49.306;8.500;2024-01-30T06:08:15;12.33;;;9.20;;
9722;SDS011;4900;49.306;8.500;2024-01-30T06:10:40;13.03;;;9.40;;
9722;SDS011;4900;49.306;8.500;2024-01-30T06:13:06;12.60;;;8.90;;
9722;SDS011;4900;49.306;8.500;2024-01-30T06:15:31;13.20;;;9.20;;
9722;SDS011;4900;49.306;8.500;2024-01-30T06:17:58;14.63;;;9.57;;
9722;SDS011;4900;49.306;8.500;2024-01-30T06:20:24;14.50;;;9.30;;
9722;SDS011;4900;49.306;8.500;2024-01-30T06:22:49;13.63;;;9.27;;
9722;SDS011;4900;49.306;8.500;2024-01-30T06:25:15;13.10;;;9.03;;
9722;SDS011;4900;49.306;8.500;2024-01-30T06:27:41;14.77;;;9.07;;
9722;SDS011;4900;49.306;8.500;2024-01-30T06:30:07;14.47;;;8.93;;
9722;SDS011;4900;49.306;8.500;2024-01-30T06:32:33;12.47;;;9.37;;
9722;SDS011;4900;49.306;8.500;2024-01-30T06:35:02;13.67;;;9.80;;
9722;SDS011;4900;49.306;8.500;2024-01-30T06:37:28;12.80;;;8.73;;
9722;SDS011;4900;49.306;8.500;2024-01-30T06:39:53;12.50;;;9.10;;
9722;SDS011;4900;49.306;8.500;2024-01-30T06:42:19;13.73;;;9.37;;
9722;SDS011;4900;49.306;8.500;2024-01-30T06:44:44;13.63;;;9.70;;
9722;SDS011;4900;49.306;8.500;2024-01-30T06:47:10;11.83;;;8.73;;
9722;SDS011;4900;49.306;8.500;2024-01-30T06:49:36;15.10;;;9.70;;
9722;SDS011;4900;49.306;8.500;2024-01-30T06:52:07;15.00;;;10.23;;
9722;SDS011;4900;49.306;8.500;2024-01-30T06:54:33;15.13;;;9.63;;
9722;SDS011;4900;49.306;8.500;2024-01-30T06:56:58;14.90;;;9.90;;
9722;SDS011;4900;49.306;8.500;2024-01-30T06:59:24;15.97;;;10.20;;
9722;SDS011;4900;49.306;8.500;2024-01-30T07:01:51;15.60;;;10.87;;
9722;SDS011;4900;49.306;8.500;2024-01-30T07:04:16;17.57;;;11.00;;
9722;SDS011;4900;49.306;8.500;2024-01-30T07:06:43;18.13;;;12.13;;
9722;SDS011;4900;49.306;8.500;2024-01-30T07:09:08;17.23;;;11.13;;
9722;SDS011;4900;49.306;8.500;2024-01-30T07:11:34;17.40;;;10.83;;
9722;SDS011;4900;49.306;8.500;2024-01-30T07:13:59;16.53;;;10.80;;
9722;SDS011;4900;49.306;8.500;2024-01-30T07:16:25;15.10;;;10.40;;
9722;SDS011;4900;49.306;8.500;2024-01-30T07:18:50;13.53;;;9.27;;
9722;SDS011;4900;49.306;8.500;2024-01-30T07:21:16;13.97;;;10.40;;
9722;SDS011;4900;49.306;8.500;2024-01-30T07:23:42;17.07;;;11.03;;
9722;SDS011;4900;49.306;8.500;2024-01-30T07:26:08;14.83;;;10.13;;
9722;SDS011;4900;49.306;8.500;2024-01-30T07:28:34;12.43;;;9.73;;
9722;SDS011;4900;49.306;8.500;2024-01-30T07:31:00;15.80;;;9.87;;
9722;SDS011;4900;49.306;8.500;2024-01-30T07:33:26;18.17;;;10.50;;
9722;SDS011;4900;49.306;8.500;2024-01-30T07:35:54;14.23;;;10.07;;
9722;SDS011;4900;49.306;8.500;2024-01-30T07:38:20;14.07;;;9.97;;
9722;SDS011;4900;49.306;8.500;2024-01-30T07:40:46;13.50;;;9.77;;
9722;SDS011;4900;49.306;8.500;2024-01-30T07:43:11;15.20;;;10.40;;
9722;SDS011;4900;49.306;8.500;2024-01-30T07:45:37;14.40;;;10.13;;
9722;SDS011;4900;49.306;8.500;2024-01-30T07:48:04;15.63;;;10.17;;
9722;SDS011;4900;49.306;8.500;2024-01-30T07:50:30;15.27;;;10.43;;
9722;SDS011;4900;49.306;8.500;2024-01-30T07:52:56;13.97;;;9.77;;
9722;SDS011;4900;49.306;8.500;2024-01-30T07:55:22;14.03;;;10.07;;
9722;SDS011;4900;49.306;8.500;2024-01-30T07:57:52;19.80;;;13.07;;
9722;SDS011;4900;49.306;8.500;2024-01-30T08:00:18;18.37;;;12.27;;
9722;SDS011;4900;49.306;8.500;2024-01-30T08:02:46;19.67;;;12.77;;
9722;SDS011;4900;49.306;8.500;2024-01-30T08:05:11;16.13;;;11.20;;
9722;SDS011;4900;49.306;8.500;2024-01-30T08:07:37;14.43;;;10.63;;
9722;SDS011;4900;49.306;8.500;2024-01-30T08:10:02;15.50;;;11.40;;
9722;SDS011;4900;49.306;8.500;2024-01-30T08:12:28;17.07;;;10.73;;
9722;SDS011;4900;49.306;8.500;2024-01-30T08:14:54;15.23;;;11.43;;
9722;SDS011;4900;49.306;8.500;2024-01-30T08:17:19;15.10;;;11.23;;
9722;SDS011;4900;49.306;8.500;2024-01-30T08:19:45;17.20;;;11.60;;
9722;SDS011;4900;49.306;8.500;2024-01-30T08:22:11;18.37;;;11.40;;
9722;SDS011;4900;49.306;8.500;2024-01-30T08:24:37;16.17;;;11.97;;
9722;SDS011;4900;49.306;8.500;2024-01-30T08:27:05;16.07;;;11.10;;
9722;SDS011;4900;49.306;8.500;2024-01-30T08:29:31;15.30;;;11.50;;
9722;SDS011;4900;49.306;8.500;2024-01-30T08:31:57;22.63;;;14.17;;
9722;SDS011;4900;49.306;8.500;2024-01-30T08:34:24;22.33;;;15.10;;
9722;SDS011;4900;49.306;8.500;2024-01-30T08:36:49;21.47;;;14.23;;
9722;SDS011;4900;49.306;8.500;2024-01-30T08:39:15;22.70;;;15.07;;
9722;SDS011;4900;49.306;8.500;2024-01-30T08:41:40;22.03;;;14.17;;
9722;SDS011;4900;49.306;8.500;2024-01-30T08:44:06;21.87;;;15.00;;
9722;SDS011;4900;49.306;8.500;2024-01-30T08:46:31;25.03;;;16.60;;
9722;SDS011;4900;49.306;8.500;2024-01-30T08:48:56;21.63;;;15.77;;
9722;SDS011;4900;49.306;8.500;2024-01-30T08:51:22;20.90;;;14.87;;
9722;SDS011;4900;49.306;8.500;2024-01-30T08:53:47;20.23;;;14.80;;
9722;SDS011;4900;49.306;8.500;2024-01-30T08:56:13;19.37;;;14.03;;
9722;SDS011;4900;49.306;8.500;2024-01-30T08:58:38;19.03;;;14.20;;
9722;SDS011;4900;49.306;8.500;2024-01-30T09:01:05;21.60;;;14.50;;
9722;SDS011;4900;49.306;8.500;2024-01-30T09:03:31;19.80;;;15.03;;
9722;SDS011;4900;49.306;8.500;2024-01-30T09:05:56;19.27;;;14.43;;
9722;SDS011;4900;49.306;8.500;2024-01-30T09:08:22;20.40;;;14.80;;
9722;SDS011;4900;49.306;8.500;2024-01-30T09:10:47;18.37;;;14.43;;
9722;SDS011;4900;49.306;8.500;2024-01-30T09:13:14;19.07;;;14.17;;
9722;SDS011;4900;49.306;8.500;2024-01-30T09:15:41;20.07;;;14.17;;
9722;SDS011;4900;49.306;8.500;2024-01-30T09:18:07;20.63;;;15.27;;
9722;SDS011;4900;49.306;8.500;2024-01-30T09:20:34;20.57;;;14.33;;
9722;SDS011;4900;49.306;8.500;2024-01-30T09:23:00;19.67;;;14.37;;
9722;SDS011;4900;49.306;8.500;2024-01-30T09:25:25;20.07;;;15.13;;
9722;SDS011;4900;49.306;8.500;2024-01-30T09:27:51;19.53;;;14.00;;
9722;SDS011;4900;49.306;8.500;2024-01-30T09:30:17;20.97;;;14.27;;
9722;SDS011;4900;49.306;8.500;2024-01-30T09:32:42;21.53;;;15.23;;
9722;SDS011;4900;49.306;8.500;2024-01-30T09:35:08;20.50;;;14.60;;
9722;SDS011;4900;49.306;8.500;2024-01-30T09:37:34;19.97;;;13.47;;
9722;SDS011;4900;49.306;8.500;2024-01-30T09:39:59;18.57;;;13.73;;
9722;SDS011;4900;49.306;8.500;2024-01-30T09:44:59;19.90;;;14.57;;
9722;SDS011;4900;49.306;8.500;2024-01-30T09:47:26;18.00;;;14.13;;
9722;SDS011;4900;49.306;8.500;2024-01-30T09:49:52;20.37;;;15.43;;
9722;SDS011;4900;49.306;8.500;2024-01-30T09:52:18;18.10;;;14.07;;
9722;SDS011;4900;49.306;8.500;2024-01-30T09:54:44;21.13;;;15.80;;
9722;SDS011;4900;49.306;8.500;2024-01-30T09:57:11;18.80;;;14.67;;
9722;SDS011;4900;49.306;8.500;2024-01-30T09:59:36;20.93;;;14.60;;
9722;SDS011;4900;49.306;8.500;2024-01-30T10:02:02;20.87;;;15.70;;
9722;SDS011;4900;49.306;8.500;2024-01-30T10:04:29;18.23;;;13.83;;
9722;SDS011;4900;49.306;8.500;2024-01-30T10:06:55;20.33;;;14.70;;
9722;SDS011;4900;49.306;8.500;2024-01-30T10:09:21;16.67;;;13.73;;
9722;SDS011;4900;49.306;8.500;2024-01-30T10:11:48;16.70;;;13.17;;
9722;SDS011;4900;49.306;8.500;2024-01-30T10:14:13;18.60;;;13.13;;
9722;SDS011;4900;49.306;8.500;2024-01-30T10:16:39;17.27;;;13.03;;
9722;SDS011;4900;49.306;8.500;2024-01-30T10:19:04;18.40;;;13.67;;
9722;SDS011;4900;49.306;8.500;2024-01-30T10:21:30;17.47;;;12.77;;
9722;SDS011;4900;49.306;8.500;2024-01-30T10:23:56;18.33;;;13.70;;
9722;SDS011;4900;49.306;8.500;2024-01-30T10:26:21;16.67;;;12.03;;
9722;SDS011;4900;49.306;8.500;2024-01-30T10:28:47;17.47;;;12.73;;
9722;SDS011;4900;49.306;8.500;2024-01-30T10:31:17;17.27;;;12.40;;
9722;SDS011;4900;49.306;8.500;2024-01-30T10:33:46;17.90;;;12.17;;
9722;SDS011;4900;49.306;8.500;2024-01-30T10:36:13;19.97;;;11.87;;
9722;SDS011;4900;49.306;8.500;2024-01-30T10:38:39;16.90;;;12.07;;
9722;SDS011;4900;49.306;8.500;2024-01-30T10:41:08;16.23;;;12.03;;
9722;SDS011;4900;49.306;8.500;2024-01-30T10:43:40;15.33;;;11.17;;
9722;SDS011;4900;49.306;8.500;2024-01-30T10:46:11;15.27;;;11.43;;
9722;SDS011;4900;49.306;8.500;2024-01-30T10:48:46;16.97;;;11.77;;
9722;SDS011;4900;49.306;8.500;2024-01-30T10:51:19;15.10;;;11.87;;
9722;SDS011;4900;49.306;8.500;2024-01-30T10:53:47;13.90;;;11.23;;
9722;SDS011;4900;49.306;8.500;2024-01-30T10:56:14;15.60;;;11.63;;
9722;SDS011;4900;49.306;8.500;2024-01-30T10:58:41;15.47;;;11.80;;
9722;SDS011;4900;49.306;8.500;2024-01-30T11:01:08;14.83;;;11.60;;
9722;SDS011;4900;49.306;8.500;2024-01-30T11:03:34;15.63;;;11.63;;
9722;SDS011;4900;49.306;8.500;2024-01-30T11:06:03;13.53;;;10.63;;
9722;SDS011;4900;49.306;8.500;2024-01-30T11:08:31;14.47;;;10.93;;
9722;SDS011;4900;49.306;8.500;2024-01-30T11:10:57;13.97;;;10.70;;
9722;SDS011;4900;49.306;8.500;2024-01-30T11:13:27;14.13;;;11.20;;
9722;SDS011;4900;49.306;8.500;2024-01-30T11:15:55;15.10;;;11.67;;
9722;SDS011;4900;49.306;8.500;2024-01-30T11:18:29;13.93;;;10.87;;
9722;SDS011;4900;49.306;8.500;2024-01-30T11:20:56;14.43;;;10.77;;
9722;SDS011;4900;49.306;8.500;2024-01-30T11:23:25;12.97;;;10.33;;
9722;SDS011;4900;49.306;8.500;2024-01-30T11:25:52;13.63;;;10.70;;
9722;SDS011;4900;49.306;8.500;2024-01-30T11:28:18;13.83;;;10.83;;
9722;SDS011;4900;49.306;8.500;2024-01-30T11:30:45;14.07;;;10.70;;
9722;SDS011;4900;49.306;8.500;2024-01-30T11:33:13;15.43;;;11.00;;
9722;SDS011;4900;49.306;8.500;2024-01-30T11:35:44;13.07;;;10.50;;
9722;SDS011;4900;49.306;8.500;2024-01-30T11:38:13;13.05;;;10.60;;
9722;SDS011;4900;49.306;8.500;2024-01-30T11:40:39;13.93;;;10.90;;
9722;SDS011;4900;49.306;8.500;2024-01-30T11:43:06;14.88;;;11.13;;
9722;SDS011;4900;49.306;8.500;2024-01-30T11:45:33;14.30;;;12.05;;
9722;SDS011;4900;49.306;8.500;2024-01-30T11:47:59;16.30;;;12.52;;
9722;SDS011;4900;49.306;8.500;2024-01-30T11:50:27;16.42;;;12.88;;
9722;SDS011;4900;49.306;8.500;2024-01-30T11:52:54;14.85;;;11.57;;
9722;SDS011;4900;49.306;8.500;2024-01-30T11:55:19;14.23;;;10.93;;
9722;SDS011;4900;49.306;8.500;2024-01-30T11:57:45;15.27;;;10.77;;
9722;SDS011;4900;49.306;8.500;2024-01-30T12:00:14;12.75;;;10.35;;
9722;SDS011;4900;49.306;8.500;2024-01-30T12:02:41;12.63;;;9.88;;
9722;SDS011;4900;49.306;8.500;2024-01-30T12:05:07;13.63;;;9.93;;
9722;SDS011;4900;49.306;8.500;2024-01-30T12:07:33;11.95;;;9.60;;
9722;SDS011;4900;49.306;8.500;2024-01-30T12:09:58;12.57;;;9.82;;
9722;SDS011;4900;49.306;8.500;2024-01-30T12:12:28;13.57;;;10.00;;
9722;SDS011;4900;49.306;8.500;2024-01-30T12:14:54;13.18;;;10.00;;
9722;SDS011;4900;49.306;8.500;2024-01-30T12:17:38;13.15;;;9.77;;
9722;SDS011;4900;49.306;8.500;2024-01-30T12:20:14;14.30;;;9.60;;
9722;SDS011;4900;49.306;8.500;2024-01-30T12:22:43;11.50;;;9.38;;
9722;SDS011;4900;49.306;8.500;2024-01-30T12:25:13;12.50;;;9.27;;
9722;SDS011;4900;49.306;8.500;2024-01-30T12:27:42;10.45;;;8.48;;
9722;SDS011;4900;49.306;8.500;2024-01-30T12:30:10;12.02;;;9.63;;
9722;SDS011;4900;49.306;8.500;2024-01-30T12:32:37;11.00;;;8.93;;
9722;SDS011;4900;49.306;8.500;2024-01-30T12:35:06;10.93;;;8.90;;
9722;SDS011;4900;49.306;8.500;2024-01-30T12:37:33;11.40;;;8.90;;
9722;SDS011;4900;49.306;8.500;2024-01-30T12:39:59;10.40;;;8.45;;
9722;SDS011;4900;49.306;8.500;2024-01-30T12:42:25;10.27;;;8.38;;
9722;SDS011;4900;49.306;8.500;2024-01-30T12:44:52;10.75;;;8.82;;
9722;SDS011;4900;49.306;8.500;2024-01-30T12:47:18;10.85;;;8.15;;
9722;SDS011;4900;49.306;8.500;2024-01-30T12:49:43;10.52;;;8.50;;
9722;SDS011;4900;49.306;8.500;2024-01-30T12:52:10;9.73;;;8.07;;
9722;SDS011;4900;49.306;8.500;2024-01-30T12:54:37;11.48;;;7.93;;
9722;SDS011;4900;49.306;8.500;2024-01-30T12:57:02;10.55;;;8.65;;
9722;SDS011;4900;49.306;8.500;2024-01-30T12:59:28;10.55;;;8.48;;
9722;SDS011;4900;49.306;8.500;2024-01-30T13:01:53;12.55;;;8.30;;
9722;SDS011;4900;49.306;8.500;2024-01-30T13:04:19;10.18;;;7.93;;
9722;SDS011;4900;49.306;8.500;2024-01-30T13:06:45;9.73;;;8.13;;
9722;SDS011;4900;49.306;8.500;2024-01-30T13:09:10;9.68;;;7.90;;
9722;SDS011;4900;49.306;8.500;2024-01-30T13:11:37;10.50;;;7.70;;
9722;SDS011;4900;49.306;8.500;2024-01-30T13:14:03;11.52;;;7.70;;
9722;SDS011;4900;49.306;8.500;2024-01-30T13:16:28;11.32;;;7.68;;
9722;SDS011;4900;49.306;8.500;2024-01-30T13:18:53;9.95;;;7.95;;
9722;SDS011;4900;49.306;8.500;2024-01-30T13:21:20;10.85;;;7.47;;
9722;SDS011;4900;49.306;8.500;2024-01-30T13:23:46;9.43;;;7.50;;
9722;SDS011;4900;49.306;8.500;2024-01-30T13:26:11;9.30;;;7.28;;
9722;SDS011;4900;49.306;8.500;2024-01-30T13:28:37;8.63;;;7.40;;
9722;SDS011;4900;49.306;8.500;2024-01-30T13:31:02;8.88;;;6.90;;
9722;SDS011;4900;49.306;8.500;2024-01-30T13:33:28;8.13;;;7.25;;
9722;SDS011;4900;49.306;8.500;2024-01-30T13:35:53;11.35;;;6.95;;
9722;SDS011;4900;49.306;8.500;2024-01-30T13:38:19;9.05;;;7.20;;
9722;SDS011;4900;49.306;8.500;2024-01-30T13:40:45;8.80;;;7.20;;
9722;SDS011;4900;49.306;8.500;2024-01-30T13:43:11;8.43;;;7.32;;
9722;SDS011;4900;49.306;8.500;2024-01-30T13:45:37;9.35;;;7.10;;
9722;SDS011;4900;49.306;8.500;2024-01-30T13:48:02;8.65;;;6.90;;
9722;SDS011;4900;49.306;8.500;2024-01-30T13:50:28;10.55;;;7.03;;
9722;SDS011;4900;49.306;8.500;2024-01-30T13:52:53;10.85;;;6.93;;
9722;SDS011;4900;49.306;8.500;2024-01-30T13:55:19;9.20;;;7.05;;
9722;SDS011;4900;49.306;8.500;2024-01-30T13:57:44;8.85;;;6.97;;
9722;SDS011;4900;49.306;8.500;2024-01-30T14:00:10;9.02;;;7.03;;
9722;SDS011;4900;49.306;8.500;2024-01-30T14:02:36;9.88;;;7.03;;
9722;SDS011;4900;49.306;8.500;2024-01-30T14:05:01;8.00;;;7.05;;
9722;SDS011;4900;49.306;8.500;2024-01-30T14:07:29;8.35;;;6.38;;
9722;SDS011;4900;49.306;8.500;2024-01-30T14:09:55;8.43;;;6.70;;
9722;SDS011;4900;49.306;8.500;2024-01-30T14:12:20;9.95;;;6.90;;
9722;SDS011;4900;49.306;8.500;2024-01-30T14:14:47;8.98;;;6.45;;
9722;SDS011;4900;49.306;8.500;2024-01-30T14:17:12;7.82;;;6.20;;
9722;SDS011;4900;49.306;8.500;2024-01-30T14:19:38;6.95;;;6.00;;
9722;SDS011;4900;49.306;8.500;2024-01-30T14:22:03;8.82;;;5.88;;
9722;SDS011;4900;49.306;8.500;2024-01-30T14:24:29;8.48;;;6.05;;
9722;SDS011;4900;49.306;8.500;2024-01-30T14:26:55;9.43;;;7.10;;
9722;SDS011;4900;49.306;8.500;2024-01-30T14:29:20;8.43;;;7.10;;
9722;SDS011;4900;49.306;8.500;2024-01-30T14:31:46;8.77;;;7.13;;
9722;SDS011;4900;49.306;8.500;2024-01-30T14:34:11;8.93;;;7.30;;
9722;SDS011;4900;49.306;8.500;2024-01-30T14:36:37;8.93;;;6.72;;
9722;SDS011;4900;49.306;8.500;2024-01-30T14:39:03;7.30;;;6.47;;
9722;SDS011;4900;49.306;8.500;2024-01-30T14:41:29;8.43;;;6.55;;
9722;SDS011;4900;49.306;8.500;2024-01-30T14:43:56;8.52;;;6.30;;
9722;SDS011;4900;49.306;8.500;2024-01-30T14:46:22;7.53;;;6.05;;
9722;SDS011;4900;49.306;8.500;2024-01-30T14:48:48;8.75;;;6.90;;
9722;SDS011;4900;49.306;8.500;2024-01-30T14:51:16;13.93;;;11.32;;